createdAt,value
2022-09-05T00:00:42.166Z,16.20
2022-09-05T00:01:42.212Z,26.20
2022-09-05T00:02:49.177Z,14.40
2022-09-05T00:03:43.205Z,11.90
2022-09-05T00:04:49.504Z,16.90
2022-09-05T00:05:51.054Z,25.50
2022-09-05T00:06:42.916Z,14.30
2022-09-05T00:07:59.581Z,21.40
2022-09-05T00:08:42.857Z,11.30
2022-09-05T00:09:41.847Z,19.80
2022-09-05T00:10:46.663Z,24.90
2022-09-05T00:11:44.058Z,7.00
2022-09-05T00:12:41.816Z,10.50
2022-09-05T00:13:41.820Z,19.80
2022-09-05T00:15:15.869Z,20.70
2022-09-05T00:15:42.873Z,17.00
2022-09-05T00:16:41.772Z,20.00
2022-09-05T00:18:06.552Z,12.30
2022-09-05T00:24:17.498Z,32.30
2022-09-05T00:24:18.385Z,17.30
2022-09-05T00:24:25.376Z,13.20
2022-09-05T00:24:32.630Z,13.30
2022-09-05T00:24:32.757Z,11.30
2022-09-05T00:24:37.160Z,22.10
2022-09-05T00:25:00.910Z,17.30
2022-09-05T00:25:42.670Z,7.80
2022-09-05T00:26:49.956Z,13.40
2022-09-05T00:27:42.658Z,15.40
2022-09-05T00:28:41.642Z,25.00
2022-09-05T00:30:52.323Z,10.70
2022-09-05T00:31:07.591Z,26.80
2022-09-05T00:31:55.128Z,7.30
2022-09-05T00:32:42.728Z,12.90
2022-09-05T00:33:41.593Z,15.20
2022-09-05T00:34:47.716Z,12.30
2022-09-05T00:35:42.556Z,7.30
2022-09-05T00:36:41.560Z,21.00
2022-09-05T00:37:41.539Z,18.70
2022-09-05T00:38:41.527Z,13.20
2022-09-05T00:39:41.627Z,10.00
2022-09-05T00:40:42.500Z,27.40
2022-09-05T00:41:41.490Z,9.00
2022-09-05T00:42:41.481Z,17.70
2022-09-05T00:43:41.470Z,7.70
2022-09-05T00:44:41.457Z,18.10
2022-09-05T00:45:41.485Z,14.80
2022-09-05T00:46:41.491Z,16.90
2022-09-05T00:47:41.424Z,9.60
2022-09-05T00:48:42.416Z,30.70
2022-09-05T00:49:41.400Z,13.10
2022-09-05T00:50:41.419Z,13.80
2022-09-05T00:51:41.413Z,14.60
2022-09-05T00:52:41.372Z,17.90
2022-09-05T00:53:42.556Z,21.90
2022-09-05T00:54:41.863Z,8.00
2022-09-05T00:55:41.330Z,15.90
2022-09-05T00:56:41.350Z,28.80
2022-09-05T00:57:44.274Z,8.80
2022-09-05T00:58:41.339Z,10.00
2022-09-05T00:59:41.284Z,11.30
2022-09-05T01:00:41.274Z,22.50
2022-09-05T01:01:41.391Z,22.00
2022-09-05T01:02:51.420Z,8.60
2022-09-05T01:03:42.251Z,31.10
2022-09-05T01:04:41.230Z,18.30
2022-09-05T01:05:41.215Z,21.70
2022-09-05T01:06:41.204Z,8.50
2022-09-05T01:07:44.180Z,9.40
2022-09-05T01:08:42.213Z,21.80
2022-09-05T01:09:41.193Z,7.70
2022-09-05T01:10:41.160Z,9.60
2022-09-05T01:11:41.148Z,14.70
2022-09-05T01:12:41.132Z,26.50
2022-09-05T01:13:42.146Z,23.10
2022-09-05T01:14:41.113Z,25.20
2022-09-05T01:15:41.142Z,10.10
2022-09-05T01:16:41.088Z,11.30
2022-09-05T01:17:41.075Z,11.30
2022-09-05T01:18:41.090Z,11.30
2022-09-05T01:19:41.079Z,24.60
2022-09-05T01:20:41.042Z,23.30
2022-09-05T01:21:41.042Z,22.50
2022-09-05T01:22:42.024Z,16.70
2022-09-05T01:23:41.003Z,8.50
2022-09-05T01:24:41.019Z,18.50
2022-09-05T01:25:41.013Z,21.60
2022-09-05T01:26:41.973Z,10.60
2022-09-05T01:28:54.978Z,9.30
2022-09-05T01:29:15.788Z,8.60
2022-09-05T01:29:41.937Z,32.70
2022-09-05T01:30:41.112Z,17.00
2022-09-05T01:31:40.914Z,16.70
2022-09-05T01:32:40.900Z,20.70
2022-09-05T01:33:40.904Z,18.00
2022-09-05T01:34:40.879Z,9.10
2022-09-05T01:35:40.892Z,16.40
2022-09-05T01:36:41.854Z,30.30
2022-09-05T01:37:40.909Z,21.30
2022-09-05T01:38:40.832Z,17.40
2022-09-05T01:40:14.809Z,27.80
2022-09-05T01:40:41.858Z,16.10
2022-09-05T01:41:40.798Z,8.50
2022-09-05T01:42:40.823Z,8.00
2022-09-05T01:43:40.787Z,14.80
2022-09-05T01:44:40.765Z,6.90
2022-09-05T01:45:40.754Z,11.90
2022-09-05T01:46:40.853Z,9.10
2022-09-05T01:47:40.836Z,10.50
2022-09-05T01:48:40.934Z,21.30
2022-09-05T01:49:41.717Z,8.90
2022-09-05T01:50:40.695Z,14.90
2022-09-05T01:51:40.685Z,7.50
2022-09-05T01:52:57.084Z,8.70
2022-09-05T01:53:41.684Z,15.60
2022-09-05T01:54:40.651Z,21.30
2022-09-05T01:56:04.293Z,15.80
2022-09-05T01:56:41.626Z,20.70
2022-09-05T01:57:40.638Z,7.30
2022-09-05T01:58:40.632Z,16.70
2022-09-05T01:59:40.593Z,20.10
2022-09-05T02:00:41.581Z,9.60
2022-09-05T02:01:40.598Z,17.20
2022-09-05T02:02:40.714Z,23.10
2022-09-05T02:03:41.574Z,18.60
2022-09-05T02:04:40.566Z,24.80
2022-09-05T02:05:48.691Z,20.80
2022-09-05T02:06:43.960Z,22.40
2022-09-05T02:07:40.512Z,17.00
2022-09-05T02:08:41.831Z,16.90
2022-09-05T02:09:40.504Z,17.40
2022-09-05T02:10:40.470Z,18.80
2022-09-05T02:11:40.473Z,16.00
2022-09-05T02:12:40.445Z,17.00
2022-09-05T02:13:40.446Z,15.00
2022-09-05T02:14:40.446Z,19.00
2022-09-05T02:15:40.509Z,11.60
2022-09-05T02:16:40.398Z,13.90
2022-09-05T02:17:51.043Z,11.40
2022-09-05T02:18:41.375Z,7.40
2022-09-05T02:19:40.373Z,11.40
2022-09-05T02:20:40.355Z,23.00
2022-09-05T02:21:56.514Z,10.50
2022-09-05T02:22:41.329Z,23.40
2022-09-05T02:23:42.129Z,15.60
2022-09-05T02:24:40.308Z,23.30
2022-09-05T02:26:01.135Z,7.40
2022-09-05T02:26:41.307Z,10.70
2022-09-05T02:28:04.485Z,9.90
2022-09-05T02:28:41.258Z,8.70
2022-09-05T02:29:40.247Z,18.90
2022-09-05T02:30:57.607Z,11.00
2022-09-05T02:31:41.326Z,17.30
2022-09-05T02:32:43.082Z,24.70
2022-09-05T02:33:40.202Z,13.50
2022-09-05T02:34:40.280Z,12.70
2022-09-05T02:35:40.177Z,8.70
2022-09-05T02:36:40.196Z,10.10
2022-09-05T02:39:07.532Z,14.30
2022-09-05T02:41:29.109Z,16.60
2022-09-05T02:45:06.486Z,21.20
2022-09-05T02:45:07.816Z,19.80
2022-09-05T02:45:08.602Z,9.50
2022-09-05T02:45:08.708Z,14.10
2022-09-05T02:45:10.272Z,8.40
2022-09-05T02:45:15.179Z,9.70
2022-09-05T02:45:41.137Z,16.30
2022-09-05T02:46:40.287Z,21.70
2022-09-05T02:47:40.045Z,20.20
2022-09-05T02:48:40.030Z,10.50
2022-09-05T02:51:50.815Z,15.30
2022-09-05T02:55:09.936Z,24.00
2022-09-05T02:57:26.790Z,14.70
2022-09-05T02:57:33.864Z,8.60
2022-09-05T02:57:35.085Z,9.80
2022-09-05T02:57:37.436Z,24.10
2022-09-05T02:57:46.688Z,8.90
2022-09-05T02:57:46.832Z,12.30
2022-09-05T02:58:05.333Z,20.70
2022-09-05T02:59:06.097Z,22.20
2022-09-05T02:59:40.900Z,18.80
2022-09-05T03:00:39.892Z,9.50
2022-09-05T03:01:39.954Z,10.60
2022-09-05T03:02:39.950Z,11.40
2022-09-05T03:03:39.881Z,24.80
2022-09-05T03:04:39.849Z,22.30
2022-09-05T03:05:39.842Z,15.50
2022-09-05T03:06:39.825Z,15.60
2022-09-05T03:07:39.841Z,19.50
2022-09-05T03:08:39.824Z,14.80
2022-09-05T03:09:39.803Z,20.50
2022-09-05T03:10:53.276Z,22.90
2022-09-05T03:11:40.768Z,17.50
2022-09-05T03:12:39.754Z,15.30
2022-09-05T03:13:51.778Z,10.50
2022-09-05T03:14:40.733Z,15.10
2022-09-05T03:15:39.735Z,18.20
2022-09-05T03:16:47.240Z,13.60
2022-09-05T03:17:40.699Z,26.50
2022-09-05T03:18:39.688Z,16.20
2022-09-05T03:19:46.330Z,16.20
2022-09-05T03:20:40.665Z,27.00
2022-09-05T03:21:39.683Z,20.40
2022-09-05T03:22:39.644Z,21.50
2022-09-05T03:23:39.648Z,14.20
2022-09-05T03:24:39.646Z,17.10
2022-09-05T03:25:39.635Z,9.60
2022-09-05T03:26:39.597Z,11.90
2022-09-05T03:27:39.594Z,13.60
2022-09-05T03:28:39.576Z,8.50
2022-09-05T03:29:39.565Z,13.80
2022-09-05T03:30:39.639Z,13.30
2022-09-05T03:31:39.540Z,10.40
2022-09-05T03:32:41.997Z,17.20
2022-09-05T03:33:39.532Z,15.50
2022-09-05T03:34:39.596Z,14.50
2022-09-05T03:35:39.518Z,13.80
2022-09-05T03:36:39.482Z,16.80
2022-09-05T03:37:39.470Z,21.20
2022-09-05T03:38:39.458Z,20.30
2022-09-05T03:39:39.517Z,21.30
2022-09-05T03:40:39.459Z,17.20
2022-09-05T03:41:40.155Z,17.40
2022-09-05T03:42:39.459Z,15.70
2022-09-05T03:43:39.400Z,12.10
2022-09-05T03:44:39.432Z,15.40
2022-09-05T03:45:39.393Z,20.80
2022-09-05T03:46:39.366Z,14.50
2022-09-05T03:47:39.361Z,19.20
2022-09-05T03:48:39.500Z,14.50
2022-09-05T03:50:40.315Z,16.60
2022-09-05T03:51:28.176Z,12.60
2022-09-05T03:57:05.968Z,10.20
2022-09-05T03:57:15.587Z,18.40
2022-09-05T03:57:19.887Z,16.10
2022-09-05T03:57:22.673Z,13.30
2022-09-05T03:57:25.524Z,17.40
2022-09-05T03:57:27.107Z,15.40
2022-09-05T03:57:42.581Z,13.70
2022-09-05T03:58:56.385Z,27.40
2022-09-05T03:59:40.214Z,20.20
2022-09-05T04:00:39.203Z,11.70
2022-09-05T04:05:01.016Z,15.10
2022-09-05T04:05:21.002Z,24.70
2022-09-05T04:07:40.225Z,33.20
2022-09-05T04:08:06.780Z,10.10
2022-09-05T04:08:06.858Z,19.70
2022-09-05T04:08:23.890Z,18.40
2022-09-05T04:08:27.566Z,20.40
2022-09-05T04:08:42.945Z,20.90
2022-09-05T04:09:50.547Z,16.80
2022-09-05T04:10:40.224Z,27.80
2022-09-05T04:11:39.087Z,16.00
2022-09-05T04:12:39.089Z,12.40
2022-09-05T04:13:39.106Z,17.80
2022-09-05T04:14:39.048Z,44.20
2022-09-05T04:15:39.060Z,31.10
2022-09-05T04:16:39.072Z,14.70
2022-09-05T04:17:39.041Z,13.90
2022-09-05T04:18:39.004Z,9.70
2022-09-05T04:19:40.047Z,9.90
2022-09-05T04:20:40.580Z,29.40
2022-09-05T04:21:38.980Z,24.90
2022-09-05T04:22:38.954Z,9.50
2022-09-05T04:23:38.963Z,34.00
2022-09-05T04:24:39.626Z,19.00
2022-09-05T04:25:38.916Z,17.10
2022-09-05T04:26:38.907Z,25.50
2022-09-05T04:27:38.917Z,53.10
2022-09-05T04:28:41.288Z,29.40
2022-09-05T04:29:38.869Z,24.40
2022-09-05T04:30:40.425Z,13.60
2022-09-05T04:31:38.906Z,10.40
2022-09-05T04:32:38.889Z,31.90
2022-09-05T04:33:38.828Z,14.30
2022-09-05T04:34:38.811Z,10.40
2022-09-05T04:35:38.813Z,59.00
2022-09-05T04:36:38.815Z,46.20
2022-09-05T04:37:48.546Z,40.00
2022-09-05T04:38:39.819Z,33.50
2022-09-05T04:39:38.793Z,28.90
2022-09-05T04:40:38.743Z,11.80
2022-09-05T04:41:39.805Z,21.40
2022-09-05T04:42:38.718Z,49.00
2022-09-05T04:43:38.729Z,52.30
2022-09-05T04:44:38.702Z,60.70
2022-09-05T04:45:38.730Z,63.20
2022-09-05T04:46:48.369Z,53.10
2022-09-05T04:47:39.661Z,38.20
2022-09-05T04:48:38.676Z,40.20
2022-09-05T04:49:38.638Z,40.40
2022-09-05T04:50:38.642Z,47.10
2022-09-05T04:51:38.614Z,22.20
2022-09-05T04:52:38.633Z,39.10
2022-09-05T04:53:38.592Z,24.30
2022-09-05T04:54:38.585Z,11.60
2022-09-05T04:55:38.569Z,42.90
2022-09-05T04:56:38.566Z,28.80
2022-09-05T04:57:38.570Z,37.20
2022-09-05T04:59:49.969Z,58.20
2022-09-05T05:02:45.956Z,37.50
2022-09-05T05:05:59.995Z,34.70
2022-09-05T05:06:01.061Z,32.60
2022-09-05T05:06:01.512Z,17.80
2022-09-05T05:06:08.723Z,45.20
2022-09-05T05:06:11.029Z,45.20
2022-09-05T05:06:13.900Z,26.60
2022-09-05T05:06:45.913Z,31.10
2022-09-05T05:07:39.618Z,45.40
2022-09-05T05:08:39.673Z,41.60
2022-09-05T05:09:38.405Z,20.00
2022-09-05T05:11:51.128Z,36.30
2022-09-05T05:14:28.957Z,43.80
2022-09-05T05:17:57.275Z,15.90
2022-09-05T05:18:01.746Z,32.60
2022-09-05T05:18:03.563Z,38.30
2022-09-05T05:18:07.944Z,37.80
2022-09-05T05:18:09.598Z,24.60
2022-09-05T05:18:14.076Z,19.10
2022-09-05T05:18:52.428Z,44.00
2022-09-05T05:19:39.361Z,40.40
2022-09-05T05:20:42.224Z,38.30
2022-09-05T05:21:39.267Z,31.00
2022-09-05T05:22:38.288Z,37.70
2022-09-05T05:23:38.242Z,15.40
2022-09-05T05:24:38.234Z,15.20
2022-09-05T05:25:38.223Z,23.00
2022-09-05T05:26:38.224Z,46.40
2022-09-05T05:27:38.228Z,26.30
2022-09-05T05:28:38.187Z,55.30
2022-09-05T05:29:38.174Z,61.90
2022-09-05T05:30:38.162Z,46.40
2022-09-05T05:31:38.267Z,66.40
2022-09-05T05:32:46.208Z,28.00
2022-09-05T05:33:39.128Z,36.20
2022-09-05T05:34:38.134Z,11.60
2022-09-05T05:35:45.889Z,47.40
2022-09-05T05:36:39.128Z,27.20
2022-09-05T05:37:38.082Z,42.50
2022-09-05T05:38:38.115Z,46.80
2022-09-05T05:39:38.202Z,18.80
2022-09-05T05:40:50.672Z,12.90
2022-09-05T05:41:39.034Z,12.10
2022-09-05T05:42:38.026Z,13.80
2022-09-05T05:43:38.057Z,13.30
2022-09-05T05:44:38.039Z,48.20
2022-09-05T05:45:38.078Z,38.80
2022-09-05T05:46:38.006Z,92.20
2022-09-05T05:47:37.972Z,82.60
2022-09-05T05:48:37.979Z,35.20
2022-09-05T05:49:37.942Z,37.50
2022-09-05T05:50:37.943Z,25.50
2022-09-05T05:51:51.991Z,19.70
2022-09-05T05:52:38.907Z,122.40
2022-09-05T05:53:42.615Z,21.30
2022-09-05T05:54:38.882Z,12.60
2022-09-05T05:55:50.275Z,12.50
2022-09-05T05:56:38.895Z,47.60
2022-09-05T05:57:37.855Z,75.90
2022-09-05T05:58:37.854Z,64.60
2022-09-05T05:59:37.832Z,13.20
2022-09-05T06:00:40.752Z,13.50
2022-09-05T06:01:38.991Z,28.50
2022-09-05T06:02:37.945Z,19.20
2022-09-05T06:03:37.943Z,13.20
2022-09-05T06:04:45.722Z,13.70
2022-09-05T06:05:37.897Z,12.70
2022-09-05T06:06:37.995Z,11.80
2022-09-05T06:08:54.348Z,13.70
2022-09-05T06:11:07.399Z,16.60
2022-09-05T06:14:51.311Z,13.40
2022-09-05T06:14:53.309Z,13.50
2022-09-05T06:14:59.172Z,13.70
2022-09-05T06:15:00.159Z,17.10
2022-09-05T06:15:00.624Z,15.50
2022-09-05T06:15:07.082Z,13.50
2022-09-05T06:15:38.655Z,13.90
2022-09-05T06:16:37.909Z,12.20
2022-09-05T06:17:45.403Z,18.30
2022-09-05T06:18:37.820Z,10.00
2022-09-05T06:20:49.035Z,9.50
2022-09-05T06:22:05.498Z,10.00
2022-09-05T06:22:06.007Z,14.60
2022-09-05T06:22:38.644Z,12.90
2022-09-05T06:23:39.317Z,19.30
2022-09-05T06:24:37.558Z,8.90
2022-09-05T06:25:37.539Z,10.00
2022-09-05T06:26:37.538Z,8.50
2022-09-05T06:27:37.619Z,12.60
2022-09-05T06:28:38.535Z,12.20
2022-09-05T06:29:38.402Z,9.90
2022-09-05T06:30:37.491Z,8.30
2022-09-05T06:31:37.654Z,7.60
2022-09-05T06:32:37.491Z,7.70
2022-09-05T06:33:37.449Z,10.90
2022-09-05T06:34:37.451Z,7.40
2022-09-05T06:35:37.431Z,7.50
2022-09-05T06:36:37.595Z,7.50
2022-09-05T06:37:37.421Z,8.00
2022-09-05T06:38:37.401Z,11.00
2022-09-05T06:39:37.454Z,8.70
2022-09-05T06:40:37.402Z,7.70
2022-09-05T06:41:37.389Z,12.90
2022-09-05T06:42:43.647Z,7.40
2022-09-05T06:43:38.341Z,10.40
2022-09-05T06:44:37.353Z,16.30
2022-09-05T06:45:39.036Z,7.30
2022-09-05T06:46:55.262Z,9.70
2022-09-05T06:47:38.573Z,6.60
2022-09-05T06:48:46.503Z,7.30
2022-09-05T06:49:42.860Z,7.00
2022-09-05T06:51:06.918Z,7.10
2022-09-05T06:51:44.946Z,7.30
2022-09-05T06:52:38.769Z,9.10
2022-09-05T06:53:37.435Z,10.70
2022-09-05T06:54:37.351Z,7.20
2022-09-05T06:55:38.661Z,6.80
2022-09-05T07:18:10.060Z,8.90
2022-09-05T07:19:02.639Z,10.10
2022-09-05T07:19:56.738Z,8.50
2022-09-05T07:21:18.304Z,5.50
2022-09-05T07:22:44.545Z,15.20
2022-09-05T07:22:56.522Z,32.50
2022-09-05T07:24:09.052Z,121.60
2022-09-05T07:24:56.610Z,112.00
2022-09-05T07:25:55.586Z,139.30
2022-09-05T07:26:55.501Z,25.50
2022-09-05T07:28:25.944Z,144.20
2022-09-05T07:28:56.503Z,42.40
2022-09-05T07:30:01.774Z,100.50
2022-09-05T07:30:56.432Z,7.80
2022-09-05T07:31:55.521Z,9.10
2022-09-05T07:32:55.419Z,13.50
2022-09-05T07:33:55.445Z,8.50
2022-09-05T07:34:55.402Z,10.90
2022-09-05T07:35:55.413Z,17.70
2022-09-05T07:37:14.083Z,15.70
2022-09-05T07:37:56.374Z,9.40
2022-09-05T07:39:12.282Z,6.20
2022-09-05T07:39:56.405Z,5.00
2022-09-05T07:40:55.355Z,5.20
2022-09-05T07:41:55.315Z,5.00
2022-09-05T07:43:08.997Z,5.30
2022-09-05T07:43:56.341Z,5.30
2022-09-05T07:44:55.544Z,9.10
2022-09-05T07:45:55.977Z,9.40
2022-09-05T07:46:55.300Z,6.60
2022-09-05T07:47:55.269Z,8.10
2022-09-05T07:48:55.257Z,6.20
2022-09-05T07:49:57.998Z,4.80
2022-09-05T07:55:20.429Z,5.10
2022-09-05T07:55:56.224Z,5.00
2022-09-05T07:56:47.763Z,4.20
2022-09-05T07:56:47.887Z,5.40
2022-09-05T07:57:08.507Z,4.30
2022-09-05T07:57:08.833Z,4.40
2022-09-05T07:57:25.370Z,4.70
2022-09-05T07:57:56.182Z,5.10
2022-09-05T07:58:55.137Z,7.10
2022-09-05T07:59:55.122Z,6.40
2022-09-05T08:00:55.223Z,4.90
2022-09-05T08:01:55.142Z,4.80
2022-09-05T08:02:55.317Z,6.30
2022-09-05T08:03:55.081Z,5.90
2022-09-05T08:04:55.146Z,5.00
2022-09-05T08:05:55.145Z,4.70
2022-09-05T08:07:46.151Z,4.80
2022-09-05T08:07:56.038Z,4.70
2022-09-05T08:09:21.897Z,18.20
2022-09-05T08:10:06.885Z,6.20
2022-09-05T08:11:25.093Z,4.30
2022-09-05T08:11:58.957Z,5.30
2022-09-05T08:13:24.549Z,4.50
2022-09-05T08:14:23.470Z,4.00
2022-09-05T08:14:55.958Z,4.20
2022-09-05T08:16:11.128Z,5.10
2022-09-05T08:16:55.973Z,5.10
2022-09-05T08:17:54.944Z,5.60
2022-09-05T08:18:54.912Z,4.90
2022-09-05T08:19:54.901Z,4.70
2022-09-05T08:20:54.914Z,5.70
2022-09-05T08:21:54.898Z,6.40
2022-09-05T08:22:54.915Z,4.40
2022-09-05T08:23:54.876Z,5.50
2022-09-05T08:24:54.846Z,4.50
2022-09-05T08:25:57.199Z,4.70
2022-09-05T08:26:54.846Z,4.70
2022-09-05T08:27:54.828Z,4.30
2022-09-05T08:28:54.800Z,4.20
2022-09-05T08:30:24.819Z,5.00
2022-09-05T08:30:55.777Z,5.10
2022-09-05T08:31:54.795Z,4.00
2022-09-05T08:32:56.208Z,4.10
2022-09-05T08:33:55.755Z,6.60
2022-09-05T08:34:54.733Z,4.60
2022-09-05T08:35:57.788Z,3.80
2022-09-05T08:36:55.731Z,5.10
2022-09-05T08:37:54.706Z,4.30
2022-09-05T08:38:54.722Z,4.00
2022-09-05T08:40:11.096Z,3.90
2022-09-05T08:40:55.678Z,6.60
2022-09-05T08:42:03.339Z,5.80
2022-09-05T08:43:35.261Z,4.50
2022-09-05T08:46:39.569Z,5.00
2022-09-05T08:46:41.199Z,4.00
2022-09-05T08:46:41.899Z,4.00
2022-09-05T08:46:56.045Z,4.50
2022-09-05T08:47:54.955Z,3.70
2022-09-05T08:48:54.841Z,5.10
2022-09-05T08:49:54.601Z,5.10
2022-09-05T08:50:54.767Z,4.00
2022-09-05T08:51:55.662Z,6.50
2022-09-05T08:52:54.674Z,6.00
2022-09-05T08:53:54.531Z,6.70
2022-09-05T08:55:02.887Z,3.80
2022-09-05T08:55:55.612Z,3.90
2022-09-05T08:56:54.597Z,4.10
2022-09-05T08:57:54.547Z,5.20
2022-09-05T08:59:32.167Z,4.00
2022-09-05T09:00:04.355Z,5.60
2022-09-05T09:01:00.260Z,5.30
2022-09-05T09:02:14.659Z,3.80
2022-09-05T09:02:55.657Z,4.00
2022-09-05T09:03:54.555Z,4.30
2022-09-05T09:05:01.130Z,6.10
2022-09-05T09:06:13.739Z,6.60
2022-09-05T09:07:14.489Z,3.80
2022-09-05T09:07:55.368Z,4.70
2022-09-05T09:09:05.348Z,5.30
2022-09-05T09:09:54.432Z,9.30
2022-09-05T09:10:54.394Z,3.80
2022-09-05T09:11:54.407Z,3.20
2022-09-05T09:12:54.364Z,3.70
2022-09-05T09:13:54.308Z,2.90
2022-09-05T09:14:54.303Z,3.10
2022-09-05T09:15:54.330Z,2.60
2022-09-05T09:16:54.301Z,6.90
2022-09-05T09:17:54.254Z,5.70
2022-09-05T09:18:54.293Z,3.20
2022-09-05T09:19:54.225Z,5.00
2022-09-05T09:20:54.233Z,4.20
2022-09-05T09:21:54.212Z,3.70
2022-09-05T09:23:02.161Z,3.20
2022-09-05T09:23:54.644Z,8.10
2022-09-05T09:25:14.713Z,5.40
2022-09-05T09:25:55.436Z,5.00
2022-09-05T09:26:54.253Z,6.10
2022-09-05T09:28:48.308Z,5.30
2022-09-05T09:28:55.180Z,11.00
2022-09-05T09:29:54.165Z,8.30
2022-09-05T09:30:54.295Z,4.30
2022-09-05T09:31:54.225Z,6.30
2022-09-05T09:32:57.560Z,5.10
2022-09-05T09:33:55.165Z,5.40
2022-09-05T09:34:55.460Z,8.20
2022-09-05T09:35:54.107Z,6.50
2022-09-05T09:36:54.089Z,8.00
2022-09-05T09:37:58.716Z,4.90
2022-09-05T09:38:55.021Z,4.40
2022-09-05T09:39:54.071Z,4.40
2022-09-05T09:41:00.787Z,5.60
2022-09-05T09:41:54.987Z,4.70
2022-09-05T09:42:54.107Z,4.10
2022-09-05T09:43:53.999Z,4.20
2022-09-05T09:44:53.955Z,5.30
2022-09-05T09:45:53.966Z,3.70
2022-09-05T09:46:56.537Z,3.20
2022-09-05T09:47:53.919Z,3.30
2022-09-05T09:48:53.955Z,3.30
2022-09-05T09:49:53.930Z,4.20
2022-09-05T09:50:58.800Z,5.00
2022-09-05T09:51:54.876Z,3.30
2022-09-05T09:52:54.364Z,8.50
2022-09-05T09:53:53.928Z,5.30
2022-09-05T09:54:53.860Z,6.60
2022-09-05T09:55:53.848Z,3.90
2022-09-05T09:56:53.824Z,3.10
2022-09-05T09:57:53.802Z,3.50
2022-09-05T09:58:53.805Z,4.00
2022-09-05T09:59:54.487Z,6.00
2022-09-05T10:00:53.866Z,3.00
2022-09-05T10:01:53.845Z,4.00
2022-09-05T10:05:25.421Z,5.10
2022-09-05T10:09:01.340Z,4.20
2022-09-05T10:10:35.026Z,5.40
2022-09-05T10:10:39.423Z,6.10
2022-09-05T10:10:47.954Z,4.60
2022-09-05T10:10:52.609Z,14.40
2022-09-05T10:10:55.368Z,4.20
2022-09-05T10:10:58.570Z,3.70
2022-09-05T10:11:37.579Z,4.70
2022-09-05T10:11:55.812Z,5.30
2022-09-05T10:13:07.764Z,3.50
2022-09-05T10:13:54.629Z,3.70
2022-09-05T10:14:53.648Z,5.00
2022-09-05T10:15:53.662Z,3.80
2022-09-05T10:16:53.711Z,4.80
2022-09-05T10:17:54.685Z,4.70
2022-09-05T10:18:53.603Z,3.10
2022-09-05T10:20:10.930Z,4.30
2022-09-05T10:21:15.446Z,4.20
2022-09-05T10:22:54.690Z,6.00
2022-09-05T10:23:53.548Z,7.50
2022-09-05T10:24:53.521Z,5.80
2022-09-05T10:25:55.321Z,5.00
2022-09-05T10:26:53.512Z,4.60
2022-09-05T10:27:53.515Z,5.60
2022-09-05T10:28:53.474Z,5.60
2022-09-05T10:29:53.455Z,5.30
2022-09-05T10:32:14.944Z,4.50
2022-09-05T10:35:08.992Z,7.70
2022-09-05T10:35:10.443Z,5.40
2022-09-05T10:35:14.385Z,4.50
2022-09-05T10:35:16.835Z,5.10
2022-09-05T10:35:54.539Z,4.70
2022-09-05T10:36:53.419Z,6.00
2022-09-05T10:37:53.389Z,6.40
2022-09-05T10:38:53.358Z,4.20
2022-09-05T10:39:53.436Z,6.00
2022-09-05T10:41:19.841Z,6.10
2022-09-05T10:41:54.345Z,4.80
2022-09-05T10:42:59.999Z,6.30
2022-09-05T10:43:54.334Z,5.10
2022-09-05T10:44:53.463Z,4.70
2022-09-05T10:45:53.284Z,7.40
2022-09-05T10:46:53.317Z,7.50
2022-09-05T10:47:53.358Z,4.70
2022-09-05T10:48:53.704Z,7.50
2022-09-05T10:49:53.272Z,8.80
2022-09-05T10:50:53.279Z,6.90
2022-09-05T10:51:53.280Z,8.30
2022-09-05T10:52:53.208Z,7.50
2022-09-05T10:53:53.191Z,5.70
2022-09-05T10:54:53.183Z,10.40
2022-09-05T10:55:54.179Z,4.80
2022-09-05T10:56:53.200Z,4.70
2022-09-05T10:57:53.165Z,10.40
2022-09-05T11:02:15.702Z,3.60
2022-09-05T11:02:20.818Z,5.00
2022-09-05T11:02:26.863Z,3.90
2022-09-05T11:02:30.089Z,5.70
2022-09-05T11:02:57.809Z,3.40
2022-09-05T11:03:53.182Z,3.90
2022-09-05T11:04:53.190Z,4.00
2022-09-05T11:05:53.078Z,5.60
2022-09-05T11:07:45.135Z,25.10
2022-09-05T11:08:45.039Z,9.00
2022-09-05T11:09:45.098Z,3.60
2022-09-05T11:10:45.025Z,4.70
2022-09-05T11:11:47.672Z,5.80
2022-09-05T11:12:44.982Z,7.10
2022-09-05T11:13:45.955Z,5.60
2022-09-05T11:14:44.926Z,5.70
2022-09-05T11:15:47.833Z,4.90
2022-09-05T11:16:45.952Z,7.80
2022-09-05T11:17:44.945Z,6.60
2022-09-05T11:18:54.929Z,7.40
2022-09-05T11:19:45.902Z,6.90
2022-09-05T11:20:44.838Z,5.60
2022-09-05T11:21:44.836Z,5.20
2022-09-05T11:22:44.801Z,5.50
2022-09-05T11:23:47.547Z,6.40
2022-09-05T11:24:45.822Z,5.30
2022-09-05T11:25:44.761Z,6.40
2022-09-05T11:26:47.690Z,8.30
2022-09-05T11:27:45.755Z,6.20
2022-09-05T11:29:00.644Z,7.10
2022-09-05T11:29:45.755Z,8.10
2022-09-05T11:30:44.767Z,7.60
2022-09-05T11:32:56.561Z,7.20
2022-09-05T11:39:48.514Z,7.40
2022-09-05T11:39:48.514Z,6.00
2022-09-05T11:39:51.484Z,7.90
2022-09-05T11:39:52.066Z,11.40
2022-09-05T11:39:52.457Z,5.90
2022-09-05T11:39:57.201Z,6.90
2022-09-05T11:40:07.349Z,7.80
2022-09-05T11:40:31.320Z,5.40
2022-09-05T11:41:04.862Z,6.40
2022-09-05T11:41:45.646Z,7.80
2022-09-05T11:42:44.569Z,6.10
2022-09-05T11:43:44.582Z,6.20
2022-09-05T11:44:44.553Z,6.50
2022-09-05T11:45:44.539Z,5.90
2022-09-05T11:46:44.712Z,6.10
2022-09-05T11:47:44.996Z,6.10
2022-09-05T11:48:52.934Z,6.40
2022-09-05T11:49:45.489Z,8.80
2022-09-05T11:50:44.502Z,7.30
2022-09-05T11:51:44.466Z,6.10
2022-09-05T11:52:44.500Z,7.20
2022-09-05T11:53:44.447Z,8.60
2022-09-05T11:54:44.441Z,6.50
2022-09-05T11:55:44.422Z,6.20
2022-09-05T11:56:45.879Z,9.90
2022-09-05T11:57:44.421Z,12.90
2022-09-05T11:58:45.993Z,7.80
2022-09-05T11:59:46.749Z,9.10
2022-09-05T12:00:44.367Z,7.10
2022-09-05T12:01:44.489Z,8.70
2022-09-05T12:02:44.398Z,6.70
2022-09-05T12:03:58.966Z,7.50
2022-09-05T12:04:45.397Z,5.60
2022-09-05T12:05:48.409Z,6.00
2022-09-05T12:06:48.051Z,8.20
2022-09-05T12:07:44.363Z,7.60
2022-09-05T12:08:44.285Z,6.00
2022-09-05T12:09:44.298Z,10.30
2022-09-05T12:10:47.758Z,5.90
2022-09-05T12:11:44.279Z,5.60
2022-09-05T12:12:44.245Z,6.80
2022-09-05T12:13:44.242Z,10.10
2022-09-05T12:14:49.392Z,13.00
2022-09-05T12:15:45.612Z,11.10
2022-09-05T12:16:45.262Z,8.30
2022-09-05T12:17:44.207Z,9.20
2022-09-05T12:18:44.177Z,6.40
2022-09-05T12:19:44.155Z,5.10
2022-09-05T12:20:44.148Z,9.00
2022-09-05T12:21:44.152Z,4.90
2022-09-05T12:22:44.122Z,6.20
2022-09-05T12:23:56.635Z,5.40
2022-09-05T12:25:25.540Z,6.80
2022-09-05T12:27:41.323Z,8.40
2022-09-05T12:27:42.469Z,5.00
2022-09-05T12:27:46.556Z,48.30
2022-09-05T12:29:29.159Z,7.10
2022-09-05T12:31:28.280Z,5.80
2022-09-05T12:33:40.859Z,10.80
2022-09-05T12:35:21.126Z,7.50
2022-09-05T12:36:02.599Z,9.50
2022-09-05T12:36:12.759Z,13.20
2022-09-05T12:36:13.159Z,10.60
2022-09-05T12:40:05.074Z,5.00
2022-09-05T12:40:56.748Z,10.80
2022-09-05T12:40:57.958Z,7.10
2022-09-05T12:41:33.230Z,6.70
2022-09-05T12:41:35.845Z,8.20
2022-09-05T12:42:10.546Z,6.10
2022-09-05T12:42:11.535Z,4.90
2022-09-05T12:42:55.976Z,7.30
2022-09-05T12:44:45.413Z,7.00
2022-09-05T12:44:46.189Z,6.50
2022-09-05T12:45:44.119Z,5.40
2022-09-05T12:46:43.862Z,6.50
2022-09-05T12:47:43.888Z,6.60
2022-09-05T12:48:44.753Z,5.30
2022-09-05T12:49:47.370Z,15.20
2022-09-05T12:50:44.833Z,16.30
2022-09-05T12:51:47.030Z,10.90
2022-09-05T12:52:43.796Z,20.10
2022-09-05T12:53:43.771Z,22.50
2022-09-05T12:54:43.761Z,16.20
2022-09-05T12:55:47.009Z,14.40
2022-09-05T12:59:55.259Z,20.90
2022-09-05T13:02:59.399Z,15.90
2022-09-05T13:03:03.320Z,12.30
2022-09-05T13:03:03.474Z,21.70
2022-09-05T13:03:09.852Z,13.30
2022-09-05T13:03:13.004Z,19.70
2022-09-05T13:03:15.335Z,8.90
2022-09-05T13:04:13.378Z,14.40
2022-09-05T13:05:01.585Z,24.60
2022-09-05T13:05:44.712Z,14.60
2022-09-05T13:06:43.840Z,30.00
2022-09-05T13:07:43.616Z,19.60
2022-09-05T13:08:43.623Z,20.90
2022-09-05T13:10:58.788Z,24.80
2022-09-05T13:14:07.332Z,15.50
2022-09-05T13:14:50.781Z,28.40
2022-09-05T13:14:54.225Z,15.30
2022-09-05T13:14:56.949Z,13.70
2022-09-05T13:15:03.211Z,8.00
2022-09-05T13:15:44.571Z,26.80
2022-09-05T13:16:43.543Z,22.10
2022-09-05T13:17:44.611Z,10.10
2022-09-05T13:18:43.496Z,9.40
2022-09-05T13:19:43.527Z,8.10
2022-09-05T13:20:43.472Z,6.80
2022-09-05T13:21:43.480Z,6.80
2022-09-05T13:22:48.661Z,7.80
2022-09-05T13:23:48.686Z,7.90
2022-09-05T13:24:44.452Z,8.90
2022-09-05T13:25:43.415Z,7.60
2022-09-05T13:26:43.412Z,7.90
2022-09-05T13:27:43.391Z,8.80